Tiempo atmosférico en la estación meteorológica de Tarancón, Cuenca (808 m.)



Fecha
DESCASC
Temp. máxima en grados centígrados (hora)
DESCASC
Temp. mínima en grados centígrados (hora)
DESCASC
Temp. media en grados centígrados
DESCASC
Racha de viento máxima en m/sg (hora)
DESCASC
Velocidad máxima media en intervalos de 10 minutos(hora)
DESCASC
Precipitaciones diarias en mm
DESCASC
Precipitaciones de 00:00 a 06:00 en mm
DESCASC
Precipitaciones de 06:00 a 12:00 en mm
DESCASC
Precipitaciones de 12:00 a 18:00 en mm
DESCASC
Precipitaciones de 18:00 a 24:00 en mm
DESCASC
11-12-2019 5.1 (17:30) 0.6 (07:50) 2.8 8.89 (22:40) 4.72 (22:40) -- -- -- -- --
10-12-2019 14 (16:20) -0.3 (09:10) 6.8 4.17 (12:30) 2.22 (01:00) -- -- -- -- --
09-12-2019 11.7 (14:50) 3.5 (09:40) 7.6 6.39 (14:50) 2.78 (11:20) -- -- -- -- --
08-12-2019 7.6 (15:10) 0.6 (00:00) 4.1 5.56 (10:10) 3.06 (10:10) -- -- -- -- --
07-12-2019 12.6 (17:00) 2.5 (00:00) 7.6 5.56 (04:10) 3.61 (04:10) -- -- -- -- --
06-12-2019 14.2 (15:00) 5.8 (00:00) 10 8.33 (14:30) 4.72 (12:20) -- -- -- -- --
05-12-2019 12.3 (14:00) 5.1 (00:00) 8.7 10.56 (02:40) 6.11 (02:50) -- -- -- -- --
04-12-2019 9.2 (15:20) 4 (00:00) 6.6 11.94 (15:30) 7.22 (15:30) -- -- -- -- --
03-12-2019 8.6 (15:10) 2 (00:00) 5.3 5 (10:40) 2.5 (10:40) -- -- -- -- --
02-12-2019 10.7 (14:00) 4.4 (00:00) 7.5 8.89 (14:30) 5 (12:40) -- -- -- -- --
01-12-2019 9.6 (13:50) 5.4 (00:00) 7.5 8.06 (13:50) 4.17 (17:50) -- -- -- -- --
30-11-2019 14.7 (13:50) 6.2 (00:00) 10.4 11.11 (16:40) 6.67 (16:40) -- -- -- -- --
29-11-2019 12.6 (15:30) 8 (00:00) 10.3 7.78 (11:50) 4.72 (13:50) -- -- -- -- --
28-11-2019 -- (--) -- (--) -- -- (--) -- (--) -- -- -- -- --
27-11-2019 -- (--) -- (--) -- 15.28 (13:10) 7.78 (12:50) -- -- -- -- --
26-11-2019 -- (--) -- (--) -- 11.39 (20:50) 5.56 (21:50) -- -- -- -- --
25-11-2019 -- (--) -- (--) -- 9.44 (22:00) 5.83 (06:20) -- -- -- -- --
24-11-2019 -- (--) -- (--) -- 10.83 (00:20) 5.56 (17:20) -- -- -- -- --
23-11-2019 -- (--) -- (--) -- 15 (13:20) 7.5 (02:10) -- -- -- -- --
22-11-2019 -- (--) -- (--) -- 15.56 (16:00) 6.67 (19:50) -- -- -- -- --
21-11-2019 -- (--) -- (--) -- 7.22 (11:00) 4.17 (12:50) -- -- -- -- --
20-11-2019 -- (--) -- (--) -- 10.28 (16:30) 5.83 (16:20) -- -- -- -- --
19-11-2019 -- (--) -- (--) -- 6.11 (15:10) 3.33 (00:30) -- -- -- -- --
18-11-2019 -- (--) -- (--) -- 11.11 (16:30) 5.56 (16:30) -- -- -- -- --
17-11-2019 -- (--) -- (--) -- 9.72 (16:10) 5.28 (12:00) -- -- -- -- --
16-11-2019 -- (--) -- (--) -- 8.33 (15:50) 4.17 (17:50) -- -- -- -- --
15-11-2019 -- (--) -- (--) -- 10 (00:20) 4.72 (04:20) -- -- -- -- --

Gráficas

Temp. máximas Temp. mínimas Temp. medias Precipitaciones Rachas de viento máximas Velocidades máximas media en intervalos de 10 minutos

Datos horarios

Fecha y hora oficial Temperatura (ºC) Velocidad del viento (km/h) Dirección del viento Racha (km/h) Dirección de racha Precipitación (mm) Presión (hPa) Tendencia (hPa) Humedad (%)
2019-12-14 23:00:00 6.5 6 Sur 13 Sudoeste 0 924.2 -0.5 87
2019-12-14 22:00:00 6.4 6 Sur 17 Sudoeste 0 924.3 -0.2 85
2019-12-14 21:00:00 6.6 9 Sudoeste 18 Sudoeste 0 924.5 0.3 84
2019-12-14 20:00:00 7.2 9 Sudoeste 20 Sudoeste 0 924.7 0.5 81
2019-12-14 19:00:00 8.3 10 Sudoeste 20 Sudoeste 0 924.5 0.5 78
2019-12-14 18:00:00 8.9 13 Sudoeste 30 Oeste 0 924.2 -0.1 75
2019-12-14 17:00:00 9.6 20 Oeste 37 Oeste 0 924.2 -0.5 72
2019-12-14 16:00:00 11.4 24 Oeste 38 Sudoeste 0 924 -1.2 63
2019-12-14 15:00:00 10.2 25 Sudoeste 38 Sudoeste 0 924.3 -1.6 67
2019-12-14 14:00:00 11 25 Sudoeste 40 Sudoeste 0 924.7 -1.3 66
2019-12-14 13:00:00 9.4 20 Sudoeste 29 Sudoeste 0 925.2 -0.5 77
2019-12-14 12:00:00 8.3 13 Oeste 23 Oeste 0 925.9 0.9 83
2019-12-14 11:00:00 7.8 14 Oeste 23 Oeste 0 926 1.4 87
2019-12-14 10:00:00 7.5 13 Oeste 30 Oeste 0 925.7 1.5 90
2019-12-14 09:00:00 6.2 17 Oeste 28 Oeste 0 925 0.6 94
2019-12-14 08:00:00 6.1 13 Oeste 26 Oeste 0 924.6 0.3 94
2019-12-14 07:00:00 6.4 18 Oeste 28 Oeste 0 924.2 -0.3 93
2019-12-14 06:00:00 6.8 15 Sudoeste 26 Sudoeste 0 924.4 -0.1 93
2019-12-14 05:00:00 6.3 13 Sudoeste 20 Oeste 0 924.3 -0.3 93
2019-12-14 04:00:00 7 12 Sudoeste 27 Oeste 0 924.5 -0.5 91
2019-12-14 03:00:00 7.6 14 Sudoeste 30 Oeste 0 924.5 -0.3 92
2019-12-14 02:00:00 8.5 14 Oeste 37 Oeste 0 924.6 0.3 91
2019-12-14 01:00:00 9 19 Oeste 37 Oeste 0 925 0.9 90
2019-12-14 00:00:00 9.3 18 Oeste 43 Oeste 0 924.8 0.8 89
2019-12-13 23:00:00 9.3 24 Oeste 37 Oeste 0 924.3 0.7 90
2019-12-13 22:00:00 8.9 14 Sudoeste 39 Oeste 0 924.1 0.9 89
2019-12-13 21:00:00 9.5 16 Oeste 32 Oeste 0 924 1.5 87
2019-12-13 20:00:00 9.7 18 Sudoeste 44 Oeste 0 923.6 1.4 84
2019-12-13 19:00:00 10.6 18 Oeste 47 Oeste 0 923.2 1.3 79
2019-12-13 18:00:00 11.4 27 Oeste 51 Oeste 0 922.5 1.1 75
2019-12-13 17:00:00 12.2 28 Oeste 54 Oeste 0 922.2 0.4 73
2019-12-13 16:00:00 12.7 28 Oeste 59 Oeste 0 921.9 -0.2 70
2019-12-13 15:00:00 13.2 36 Oeste 63 Oeste 0 921.4 -0.9 67
2019-12-13 14:00:00 12.6 33 Oeste 54 Oeste 0 921.8 -0.6 71
2019-12-13 13:00:00 12.5 29 Oeste 56 Oeste 0 922.1 0.8 71
2019-12-13 12:00:00 11.3 37 Oeste 57 Oeste 0 922.3 1.7 77
2019-12-13 11:00:00 10.3 26 Oeste 62 Oeste 0 922.4 2.6 81
2019-12-13 10:00:00 9.3 36 Oeste 71 Oeste 0 921.3 2 86
2019-12-13 09:00:00 9.2 35 Oeste 63 Oeste 0 920.6 1.5 87
2019-12-13 08:00:00 9.5 36 Oeste 59 Oeste 0 919.8 0.7 88
2019-12-13 07:00:00 9.7 33 Oeste 59 Oeste 0 919.3 0.3 89
2019-12-13 06:00:00 9.9 31 Oeste 64 Oeste 0 919.1 -0.3 89
2019-12-13 05:00:00 10.1 35 Oeste 68 Oeste 0 919.1 -0.6 89
2019-12-13 04:00:00 10.2 32 Oeste 57 Oeste 0 919 -0.5 88
2019-12-13 03:00:00 10 30 Oeste 51 Oeste 0 919.4 -0.5 88
2019-12-13 02:00:00 9.7 28 Oeste 53 Oeste 0 919.7 -0.4 88
2019-12-13 01:00:00 9.4 28 Oeste 56 Oeste 0 919.5 -0.8 88
2019-12-13 00:00:00 8.8 32 Oeste 51 Oeste 0 919.9 -0.7 89
2019-12-12 23:00:00 8.5 33 Oeste 58 Oeste 0 920.1 -0.4 89
2019-12-12 22:00:00 8.2 32 Oeste 57 Oeste 0 920.3 -0.6 88
2019-12-12 21:00:00 7.5 31 Oeste 54 Oeste 0 920.6 -0.4 89
2019-12-12 20:00:00 6.9 31 Oeste 52 Sudoeste 0 920.5 -1.3 91
2019-12-12 19:00:00 6.2 25 Sudoeste 41 Sudoeste 0 920.9 -1.3 92
2019-12-12 18:00:00 6.1 27 Sudoeste 48 Sudoeste 0 921 -2 91
2019-12-12 17:00:00 6.3 25 Sudoeste 49 Oeste 0 921.8 -1.7 87
2019-12-12 16:00:00 6.2 23 Oeste 44 Oeste 0.2 922.2 -2.4 89
2019-12-12 15:00:00 6.4 26 Oeste 48 Oeste 0 923 -3.4 85
2019-12-12 14:00:00 6.8 25 Oeste 48 Sudoeste 0 923.5 -3.4 81
2019-12-12 13:00:00 6 25 Oeste 44 Sudoeste 0 924.6 -2.3 84
2019-12-12 12:00:00 5.2 28 Oeste 46 Oeste 0 926.4 0 83
2019-12-12 11:00:00 4.4 19 Sudoeste 39 Oeste 0 926.9 0.2 85
2019-12-12 10:00:00 3.8 18 Sudoeste 31 Sudoeste 0 926.9 0 86
2019-12-12 09:00:00 2.2 14 Sudoeste 26 Sudoeste 0 926.4 -0.3 87
2019-12-12 08:00:00 2.3 15 Sudoeste 25 Sudoeste 0 926.7 -0.8 85
2019-12-12 07:00:00 2.2 14 Sudoeste 24 Oeste 0 926.9 -1.4 83
2019-12-12 06:00:00 2.8 13 Oeste 28 Oeste 0 926.7 -1.6 79
2019-12-12 05:00:00 2.6 7 Sudoeste 23 Oeste 0 927.5 -1.2 82
2019-12-12 04:00:00 3.1 14 Oeste 29 Oeste 0 928.3 -0.6 81
2019-12-12 03:00:00 3.1 8 Oeste 26 Noroeste 0 928.3 -0.7 77
2019-12-12 02:00:00 3.1 6 Noroeste 18 Oeste 0 928.7 -0.6 78
2019-12-12 01:00:00 3 9 Noroeste 32 Oeste 0 928.9 -0.6 77
2019-12-12 00:00:00 3.2 14 Oeste 28 Oeste 0 929 -0.5 77
2019-12-11 23:00:00 3.4 16 Oeste 32 Oeste 0 929.3 0.1 78
2019-12-11 22:00:00 3.2 11 Oeste 26 Oeste 0 929.5 0.5 82
2019-12-11 21:00:00 3.2 8 Oeste 19 Oeste 0 929.5 0.9 84
2019-12-11 20:00:00 3.3 5 Sudoeste 11 Sudoeste 0 929.2 0.9 93
2019-12-11 19:00:00 3.3 7 Sudoeste 11 Sudoeste 0 929 1.3 94
2019-12-11 18:00:00 4.1 6 Sudoeste 9 Sudoeste 0 928.6 1.3 94
2019-12-11 17:00:00 4.5 3 Norte 20 Norte 0 928.3 0.9 96
2019-12-11 16:00:00 4.4 11 Norte 20 Norte 0 927.7 -0.1 96
2019-12-11 15:00:00 3.8 8 Noroeste 24 Noroeste 0 927.3 -1.2 96
2019-12-11 14:00:00 3.9 10 Noroeste 31 Noroeste 0 927.4 -0.7 95
2019-12-11 13:00:00 3.7 9 Noroeste 26 Noroeste 0 927.8 0.1 95
2019-12-11 12:00:00 2.7 10 Noroeste 23 Noroeste 0 928.5 0.7 93
2019-12-11 11:00:00 2.8 6 Sudoeste 11 Oeste 0 928.1 0.8 94
2019-12-11 10:00:00 2.5 4 Sudeste 15 Sudoeste 0 927.7 0.4 95
2019-12-11 09:00:00 1.6 4 Sur 14 Sudoeste 0 927.8 0.4 94
2019-12-11 08:00:00 1.3 6 Sur 13 Sur 0 927.3 -0.8 95
2019-12-11 07:00:00 0.9 3 Sudeste 10 Sudeste 0 927.3 -1.1 93
2019-12-11 06:00:00 1.8 5 Sudeste 13 Sur 0 927.4 -1.4 92
2019-12-11 05:00:00 3 5 Sur 14 Sur 0 928.1 -1 93
2019-12-11 04:00:00 3.6 7 Sur 13 Sur 0 928.4 -1.4 92
2019-12-11 03:00:00 2.8 5 Sur 10 Sudeste 0 928.8 -1.1 91
2019-12-11 02:00:00 2.9 5 Sudeste 9 Sudeste 0 929.1 -1.1 89
2019-12-11 01:00:00 3.3 6 Sur 10 Sur 0 929.8 -0.7 89
2019-12-11 00:00:00 3.3 4 Sur 10 Sudeste 0 929.9 -0.7 84
2019-12-10 23:00:00 3.7 4 Sudoeste 8 Sur 0 930.2 -0.3 84
2019-12-10 22:00:00 4.3 5 Sudoeste 8 Sudoeste 0 930.5 -0.5 81
2019-12-10 21:00:00 4.6 3 Oeste 6 Oeste 0 930.6 -0.5 84
2019-12-10 20:00:00 5.6 0 Calma 5 Norte 0 930.5 -0.6 82
2019-12-10 19:00:00 6 3 Noroeste 8 Noroeste 0 931 -0.2 78
2019-12-10 18:00:00 7.1 4 Norte 13 Norte 0 931.1 -0.6 75
2019-12-10 17:00:00 11.6 4 Noroeste 8 Noroeste 0 931.1 -1.2 60
2019-12-10 16:00:00 13.7 2 Oeste 12 Oeste 0 931.2 -1.8 46
2019-12-10 15:00:00 11.5 4 Noroeste 14 Noroeste 0 931.7 -1.6 53
2019-12-10 14:00:00 9.8 4 Noroeste 12 Noroeste 0 932.3 -1.3 58
2019-12-10 13:00:00 8.2 5 Noroeste 15 Norte 0 933 -0.4 70
2019-12-10 12:00:00 5.6 5 Norte 14 Norte 0 933.3 -0.5 80
2019-12-10 11:00:00 3.1 5 Norte 10 Norte 0 933.6 -0.2 90
2019-12-10 10:00:00 1.3 5 Noroeste 9 Noroeste 0 933.4 -0.4 95
2019-12-10 09:00:00 -0.1 2 Oeste 7 Norte 0 933.8 0.4 93
2019-12-10 08:00:00 0.5 3 Norte 8 Norte 0 933.8 -0.1 95
2019-12-10 07:00:00 0.5 3 Norte 7 Noroeste 0 933.8 -0.4 95
2019-12-10 06:00:00 0.3 3 Norte 6 Noroeste 0 933.4 -1 96
2019-12-10 05:00:00 0.6 3 Noroeste 10 Noroeste 0 933.9 -0.3 96
2019-12-10 04:00:00 0.3 3 Sudoeste 8 Sudoeste 0 934.2 -0.1 96
2019-12-10 03:00:00 1.6 4 Sudoeste 10 Norte 0 934.4 -0.3 96
2019-12-10 02:00:00 2.4 6 Norte 10 Norte 0 934.2 -0.6 95
2019-12-10 01:00:00 3 8 Norte 12 Norte 0 934.3 -0.4 94
2019-12-10 00:00:00 3.5 3 Norte 9 Norte 0 934.7 0.2 92
2019-12-09 23:00:00 4.4 3 Noroeste 9 Noroeste 0 934.8 0.6 88
2019-12-09 22:00:00 5.7 6 Norte 14 Norte 0 934.7 1 84
2019-12-09 21:00:00 6.2 8 Nordeste 15 Nordeste 0 934.5 1.2 90
2019-12-09 20:00:00 5.8 5 Norte 9 Nordeste 0 934.2 1.4 91
2019-12-09 19:00:00 6.6 4 Norte 10 Nordeste 0 933.7 1.1 87
2019-12-09 18:00:00 7.2 8 Norte 13 Nordeste 0 933.3 0.4 87
2019-12-09 17:00:00 8.4 7 Norte 14 Noroeste 0 932.8 -0.2 83
2019-12-09 16:00:00 10.2 6 Noroeste 19 Noroeste 0 932.6 -1.2 75
2019-12-09 15:00:00 11.1 10 Noroeste 23 Noroeste 0 932.9 -1.6 68
2019-12-09 14:00:00 9.7 5 Noroeste 15 Oeste 0 933 -1.4 78
2019-12-09 13:00:00 7 5 Noroeste 16 Oeste 0 933.8 -0.3 95
2019-12-09 12:00:00 5.3 7 Oeste 17 Sudoeste 0 934.5 0.9 97
2019-12-09 11:00:00 4.3 8 Sudoeste 14 Sudoeste 0 934.4 1.5 97
2019-12-09 10:00:00 3.9 3 Oeste 9 Sudoeste 0 934.1 2 97
2019-12-09 09:00:00 3.9 3 Oeste 14 Norte 0 933.6 1.2 97
2019-12-09 08:00:00 4 7 Norte 12 Noroeste 0 932.9 0.9 97
2019-12-09 07:00:00 4.1 2 Nordeste 15 Noroeste 0 932.1 -0.1 97
2019-12-09 06:00:00 4.7 5 Noroeste 12 Noroeste 0 932.4 0.5 97
2019-12-09 05:00:00 4.9 4 Noroeste 11 Noroeste 0 932 0.6 96
2019-12-09 04:00:00 5.2 5 Norte 19 Noroeste 0 932.2 0.9 96
2019-12-09 03:00:00 5.5 10 Norte 20 Norte 0 931.9 0.5 96
2019-12-09 02:00:00 5.9 6 Noroeste 14 Noroeste 0 931.4 0.4 96
2019-12-09 01:00:00 5.9 5 Noroeste 11 Noroeste 0 931.3 0.2 95
2019-12-09 00:00:00 5.9 3 Noroeste 14 Noroeste 0 931.4 0.9 95
2019-12-08 23:00:00 6.2 4 Oeste 15 Noroeste 0 931 0.6 95
2019-12-08 22:00:00 6.3 5 Noroeste 9 Oeste 0 931.1 0.9 95
2019-12-08 21:00:00 6.5 4 Oeste 13 Noroeste 0 930.5 0.5 95
2019-12-08 20:00:00 6.6 2 Nordeste 9 Noroeste 0.2 930.4 0.6 94
2019-12-08 19:00:00 7 4 Noroeste 10 Sudoeste 0.4 930.2 0.3 94
2019-12-08 18:00:00 7 4 Noroeste 11 Oeste 0 930 0.2 93
2019-12-08 17:00:00 6.7 2 Noroeste 8 Norte 0 929.8 -0.2 94
2019-12-08 16:00:00 6.6 5 Noroeste 13 Norte 0 929.9 -0.4 93
2019-12-08 15:00:00 7.5 7 Oeste 13 Oeste 0 929.8 -1.1 91
2019-12-08 14:00:00 6.9 6 Sudoeste 17 Sur 0 930 -1.1 93
2019-12-08 13:00:00 6.2 5 Sur 11 Sur 0 930.3 -0.3 95
2019-12-08 12:00:00 5 7 Sudeste 12 Sudeste 0 930.9 0.6 96
2019-12-08 11:00:00 3.7 8 Sudeste 20 Sur 0 931.1 1 96
2019-12-08 10:00:00 2.1 9 Sudeste 17 Sudeste 0 930.6 0.9 96
2019-12-08 09:00:00 1.1 6 Sudeste 9 Sudeste 0 930.3 0.8 96
2019-12-08 08:00:00 0.6 4 Sudeste 18 Sudeste 0 930.1 0.6 96
2019-12-08 07:00:00 1.1 9 Sudeste 15 Sudeste 0 929.7 -0.1 95
2019-12-08 06:00:00 1.2 3 Sur 6 Sudeste 0 929.5 -0.5 94
2019-12-08 05:00:00 1.3 3 Sur 16 Sur 0 929.5 -0.7 94
2019-12-08 04:00:00 1.8 3 Sur 7 Sudeste 0 929.8 -0.5 92
2019-12-08 03:00:00 2.5 0 Calma 3 Sudeste 0 930 -0.7 92
2019-12-08 02:00:00 3.1 0 Calma 8 Sudeste 0 930.2 -0.3 91
2019-12-08 01:00:00 4.4 3 Este 5 Este 0 930.3 0.2 87
2019-12-08 00:00:00 5.8 3 Este 5 Sudeste 0 930.7 1.2 90
2019-12-07 23:00:00 6.1 3 Noroeste 6 Noroeste 0 930.5 1 91
2019-12-07 22:00:00 6.5 5 Norte 6 Norte 0 930.1 1 88
2019-12-07 21:00:00 6.8 0 Calma 5 Noroeste 0 929.5 0.8 81
2019-12-07 20:00:00 7.5 3 Noroeste 6 Noroeste 0 929.5 1.2 80
2019-12-07 19:00:00 8.3 2 Oeste 4 Oeste 0 929.1 0.9 74
2019-12-07 18:00:00 10 0 Calma 6 Noroeste 0 928.7 0.5 67
2019-12-07 17:00:00 12.5 3 Noroeste 10 Noroeste 0 928.3 -0.1 60
2019-12-07 16:00:00 11.8 7 Noroeste 15 Noroeste 0 928.2 -0.8 62
2019-12-07 15:00:00 11.8 7 Noroeste 14 Noroeste 0 928.2 -1.4 63
2019-12-07 14:00:00 11.7 6 Norte 13 Norte 0 928.4 -1.3 66
2019-12-07 13:00:00 9.9 7 Norte 13 Norte 0 929 -0.2 74
2019-12-07 12:00:00 7.5 5 Norte 16 Noroeste 0 929.6 0.8 87
2019-12-07 11:00:00 5.8 6 Noroeste 13 Norte 0 929.7 1.2 95
2019-12-07 10:00:00 2.9 5 Noroeste 10 Noroeste 0 929.2 0.8 94
2019-12-07 09:00:00 4.9 6 Nordeste 18 Este 0 928.8 0.4 90
2019-12-07 08:00:00 4.7 6 Este 13 Nordeste 0 928.5 -0.1 91
2019-12-07 07:00:00 3.8 8 Este 12 Este 0 928.4 -0.1 95
2019-12-07 06:00:00 3.9 7 Sudeste 10 Sudeste 0 928.4 -0.1 95
2019-12-07 05:00:00 4.7 4 Nordeste 20 Este 0 928.6 0 95
2019-12-07 04:00:00 5 12 Este 19 Este 0 928.5 -0.5 94
2019-12-07 03:00:00 5.5 8 Este 18 Sudeste 0 928.5 -0.5 90
2019-12-07 02:00:00 5.3 7 Sudeste 12 Sudeste 0 928.6 0.1 88
2019-12-07 01:00:00 6.1 5 Nordeste 10 Nordeste 0 929 0.8 86
2019-12-07 00:00:00 5.8 6 Nordeste 9 Nordeste 0 929 0.8 89
2019-12-06 23:00:00 6.5 4 Este 15 Sudeste 0 928.5 0.6 87
2019-12-06 22:00:00 6.8 8 Sudeste 17 Sudeste 0 928.2 0.6 86
2019-12-06 21:00:00 7 5 Sudeste 13 Sudeste 0 928.2 0.8 83
2019-12-06 20:00:00 7.5 5 Sudeste 13 Sudeste 0 927.9 0.7 81
2019-12-06 19:00:00 8.3 6 Sudeste 12 Sudeste 0 927.6 0.5 77
2019-12-06 18:00:00 9.4 4 Sudeste 17 Sudeste 0 927.4 0.4 71
2019-12-06 17:00:00 11.6 11 Sudeste 20 Sudeste 0 927.2 -0.2 63
2019-12-06 16:00:00 12.5 8 Sudeste 22 Sudeste 0 927.1 -0.9 62
2019-12-06 15:00:00 14.1 11 Sudeste 30 Sudeste 0 927 -1.3 56
2019-12-06 14:00:00 13.2 14 Sudeste 28 Sudeste 0 927.4 -1.3 58
2019-12-06 13:00:00 12.1 13 Sudeste 27 Sudeste 0 928 -0.4 62
2019-12-06 12:00:00 10.5 14 Sudeste 25 Este 0 928.3 0.4 68
2019-12-06 11:00:00 9.3 13 Este 26 Este 0 928.7 1.2 70
2019-12-06 10:00:00 7.6 6 Este 13 Sudeste 0 928.4 1.4 78
2019-12-06 09:00:00 6.9 6 Este 13 Sudeste 0 927.9 1.5 79
2019-12-06 08:00:00 6.8 5 Este 18 Este 0 927.5 1.1 78
2019-12-06 07:00:00 6.8 8 Sudeste 15 Este 0 927 0.6 80
2019-12-06 06:00:00 7.1 8 Este 19 Este 0 926.4 0 78
2019-12-06 05:00:00 6.9 6 Este 11 Este 0 926.4 -0.1 78
2019-12-06 04:00:00 6.6 3 Este 9 Nordeste 0 926.4 -0.3 81
2019-12-06 03:00:00 7 4 Nordeste 14 Este 0 926.4 -0.4 78
2019-12-06 02:00:00 6.9 8 Este 12 Sudeste 0 926.5 -0.1 78
2019-12-06 01:00:00 6.8 5 Este 10 Este 0 926.7 0.6 78
2019-12-06 00:00:00 7.4 3 Nordeste 14 Este 0 926.8 1.3 77
2019-12-05 23:00:00 7.7 6 Este 15 Este 0 926.6 1.5 74
2019-12-05 22:00:00 7.8 7 Nordeste 16 Nordeste 0 926.1 1.5 74
2019-12-05 21:00:00 7.9 6 Este 14 Nordeste 0 925.5 1.5 75
2019-12-05 20:00:00 8.2 6 Este 17 Nordeste 0 925.1 1.6 75
2019-12-05 19:00:00 8.7 8 Nordeste 15 Norte 0 924.6 1.7 75
2019-12-05 18:00:00 9.7 10 Nordeste 21 Norte 0 924 1.3 71
2019-12-05 17:00:00 10.5 6 Norte 16 Nordeste 0 923.5 0.9 68
2019-12-05 16:00:00 10.9 7 Nordeste 14 Nordeste 0 922.9 0 65
2019-12-05 15:00:00 11 7 Nordeste 22 Nordeste 0 922.7 -0.2 62
2019-12-05 14:00:00 12.2 10 Nordeste 24 Nordeste 0 922.6 -0.1 57
2019-12-05 13:00:00 11.1 13 Nordeste 30 Nordeste 0 922.9 1 61
2019-12-05 12:00:00 10 14 Nordeste 28 Nordeste 0 922.9 2 65
2019-12-05 11:00:00 8.8 12 Nordeste 24 Norte 0 922.7 2.3 70
2019-12-05 10:00:00 7.1 11 Norte 24 Norte 0 921.9 2.3 79
2019-12-05 09:00:00 5.7 14 Norte 27 Norte 0 920.9 1.8 82
2019-12-05 08:00:00 5.4 14 Norte 26 Norte 0 920.4 1.8 82
2019-12-05 07:00:00 6.1 15 Norte 27 Norte 0 919.6 0.8 79
2019-12-05 06:00:00 6.6 16 Norte 27 Norte 0 919.1 0.8 77
2019-12-05 05:00:00 7.2 14 Nordeste 25 Nordeste 0 918.6 0.7 72
2019-12-05 04:00:00 7.2 12 Nordeste 33 Nordeste 0 918.8 1.5 73
2019-12-05 03:00:00 7.3 19 Nordeste 38 Nordeste 0 918.3 1.5 73
2019-12-05 02:00:00 7.8 18 Nordeste 33 Nordeste 0 917.9 1.6 70
2019-12-05 01:00:00 7.9 17 Nordeste 28 Nordeste 0 917.3 1.2 69
2019-12-05 00:00:00 7.5 9 Nordeste 31 Nordeste 0 916.8 0.8 75
2019-12-04 23:00:00 7.3 14 Norte 24 Nordeste 0 916.3 0.9 77
2019-12-04 22:00:00 7.5 10 Norte 20 Norte 0 916.1 1 77
2019-12-04 21:00:00 7.3 10 Norte 35 Nordeste 0 916 1.4 78
2019-12-04 20:00:00 7.3 16 Nordeste 41 Norte 0 915.4 1.4 77
2019-12-04 19:00:00 7.5 17 Norte 36 Norte 0 915.1 1.5 77
2019-12-04 18:00:00 7.9 15 Norte 37 Norte 0 914.6 1.5 76
2019-12-04 17:00:00 8.4 18 Nordeste 42 Nordeste 0 914 0.6 74
2019-12-04 16:00:00 8.7 21 Nordeste 43 Norte 0 913.6 0 73
2019-12-04 15:00:00 9 12 Noroeste 31 Norte 0 913.1 -1.6 82
2019-12-04 14:00:00 8.5 13 Noroeste 29 Noroeste 0.2 913.4 -1.8 85
2019-12-04 13:00:00 6.8 14 Noroeste 28 Noroeste 0 913.6 -1.8 93
2019-12-04 12:00:00 5.6 9 Noroeste 30 Norte 1.8 914.7 -0.5 95
2019-12-04 11:00:00 5.3 10 Noroeste 26 Norte 0.2 915.2 -0.1 95
2019-12-04 10:00:00 4.9 14 Norte 27 Norte 0.2 915.4 -0.1 96
2019-12-04 09:00:00 4.7 6 Noroeste 19 Norte 2 915.2 -0.3 96
2019-12-04 08:00:00 4.5 9 Norte 18 Norte 1.6 915.3 -0.9 96
2019-12-04 07:00:00 4.2 6 Norte 19 Noroeste 0.2 915.5 -1.2 95
2019-12-04 06:00:00 4.1 10 Noroeste 21 Norte 0 915.5 -2.1 94
2019-12-04 05:00:00 4.1 11 Norte 22 Norte 0 916.2 -1.9 94
2019-12-04 04:00:00 4.4 6 Noroeste 17 Noroeste 0.6 916.7 -1.9 94
2019-12-04 03:00:00 4.8 7 Norte 13 Norte 0 917.6 -1.9 94
2019-12-04 02:00:00 5.2 6 Norte 15 Noroeste 0 918.1 -1.5 94
2019-12-04 01:00:00 5.8 5 Norte 10 Nordeste 0.2 918.6 -0.8 91
2019-12-04 00:00:00 6.2 6 Nordeste 12 Este 0.6 919.5 0.2 87
2019-12-03 23:00:00 7.1 5 Este 14 Este 0 919.6 0.2 76
2019-12-03 22:00:00 7.3 3 Este 8 Sudeste 0 919.4 0.3 78
2019-12-03 21:00:00 7.4 0 Calma 9 Sudeste 0 919.3 0.3 79
2019-12-03 20:00:00 7.6 5 Sudeste 12 Este 0 919.4 0.3 76
2019-12-03 19:00:00 7.8 5 Este 8 Sudeste 0 919.1 0.4 75
2019-12-03 18:00:00 8.2 4 Este 9 Este 0 919 0.1 75
2019-12-03 17:00:00 8.5 6 Este 11 Sudeste 0 919.1 -0.3 73
2019-12-03 16:00:00 8.6 5 Noroeste 12 Noroeste 0 918.7 -1.3 70
2019-12-03 15:00:00 8.5 4 Noroeste 13 Norte 0 918.9 -1.9 66
2019-12-03 14:00:00 7.8 6 Norte 12 Noroeste 0 919.4 -1.8 72
2019-12-03 13:00:00 6.1 4 Noroeste 9 Noroeste 0 920 -1.1 78
2019-12-03 12:00:00 5.8 6 Norte 12 Norte 0 920.8 -0.2 80
2019-12-03 11:00:00 5.6 8 Nordeste 18 Nordeste 0 921.2 0.3 76
2019-12-03 10:00:00 2.7 6 Norte 12 Norte 0 921.1 0.3 91
2019-12-03 09:00:00 2.2 8 Norte 14 Norte 0 921 0 90
2019-12-03 08:00:00 2.8 6 Norte 11 Norte 0 920.9 -0.3 88
2019-12-03 07:00:00 3.3 3 Norte 10 Nordeste 0 920.8 -0.7 86
2019-12-03 06:00:00 3.1 4 Norte 10 Noroeste 0 921 -0.7 86
2019-12-03 05:00:00 2.6 3 Noroeste 9 Noroeste 0 921.2 -0.8 87
2019-12-03 04:00:00 2.3 6 Norte 10 Norte 0 921.5 -1.2 87
2019-12-03 03:00:00 2.9 7 Norte 9 Nordeste 0 921.7 -0.8 85
2019-12-03 02:00:00 3.3 3 Norte 7 Noroeste 0 922 -0.3 83
2019-12-03 01:00:00 3.8 2 Noroeste 12 Norte 0 922.7 0.3 81
2019-12-03 00:00:00 4.4 7 Norte 16 Norte 0 922.5 0.3 79
2019-12-02 23:00:00 5.6 6 Norte 21 Norte 0 922.3 0.5 73
2019-12-02 22:00:00 6.4 11 Norte 24 Nordeste 0 922.4 1.1 71
2019-12-02 21:00:00 6.8 15 Nordeste 31 Norte 0 922.2 1.3 67
2019-12-02 20:00:00 7.1 13 Norte 28 Norte 0 921.8 1.3 69
2019-12-02 19:00:00 7.5 13 Norte 23 Nordeste 0 921.3 1.1 69
2019-12-02 18:00:00 8.5 12 Norte 24 Norte 0 920.9 0.9 67
2019-12-02 17:00:00 9.2 13 Norte 25 Nordeste 0 920.5 0.3 65
2019-12-02 16:00:00 9.6 13 Nordeste 30 Nordeste 0 920.2 -0.3 60
2019-12-02 15:00:00 9.7 16 Nordeste 32 Nordeste 0 920 -0.7 62
2019-12-02 14:00:00 10.7 17 Nordeste 31 Nordeste 0 920.2 -0.4 59
2019-12-02 13:00:00 9 14 Nordeste 32 Nordeste 0 920.5 0.5 64
2019-12-02 12:00:00 8.5 18 Nordeste 31 Norte 0 920.7 1.2 68
2019-12-02 11:00:00 7.2 15 Nordeste 30 Norte 0 920.6 1.7 72
2019-12-02 10:00:00 6.4 12 Norte 22 Norte 0 920 1.4 78
2019-12-02 09:00:00 5.3 10 Norte 18 Norte 0 919.5 1.4 83
2019-12-02 08:00:00 5 10 Norte 17 Norte 0 918.9 0.9 84
2019-12-02 07:00:00 5 8 Norte 12 Norte 0 918.6 0.7 84
2019-12-02 06:00:00 5.4 10 Norte 18 Norte 0 918.1 0.3 86
2019-12-02 05:00:00 5.8 10 Norte 18 Norte 0 918 0.4 90
2019-12-02 04:00:00 6.4 5 Norte 9 Norte 0.8 917.9 0.5 91
2019-12-02 03:00:00 6.6 2 Oeste 10 Nordeste 0 917.8 0.4 91
2019-12-02 02:00:00 6.8 6 Norte 11 Norte 0 917.6 0.5 90
2019-12-02 01:00:00 7.1 3 Nordeste 16 Este 0.8 917.4 0.3 89
2019-12-02 00:00:00 7.2 6 Sudeste 17 Sudeste 0.6 917.4 0.5 88
2019-12-01 23:00:00 7.3 6 Este 16 Este 0 917.1 0.2 86
2019-12-01 22:00:00 7.4 7 Este 18 Este 0.2 917.1 0.6 84
2019-12-01 21:00:00 7.5 9 Este 19 Este 0.2 916.9 0.7 85
2019-12-01 20:00:00 7.6 12 Sudeste 23 Este 0 916.9 0.5 82
2019-12-01 19:00:00 7.8 8 Sudeste 23 Este 0 916.5 -0.1 84
2019-12-01 18:00:00 8.2 14 Sudeste 27 Sudeste 0 916.2 -0.7 82
2019-12-01 17:00:00 8.7 10 Sudeste 21 Sudeste 0 916.4 -1 80
2019-12-01 16:00:00 9.2 12 Sudeste 24 Sur 0 916.6 -1.3 80
2019-12-01 15:00:00 8.7 10 Sur 26 Sudeste 0 916.9 -1.6 82
2019-12-01 14:00:00 9.1 12 Sur 29 Sur 0 917.4 -1.3 78
2019-12-01 13:00:00 8.2 10 Sur 28 Sur 0 917.9 -0.9 86
2019-12-01 12:00:00 8.3 9 Sur 23 Sur 0 918.5 0.1 85
2019-12-01 11:00:00 7.4 11 Sudoeste 23 Sudoeste 0 918.7 0.2 89
2019-12-01 10:00:00 6.5 8 Sur 15 Sur 0 918.8 0.1 93
2019-12-01 09:00:00 6 8 Sudeste 14 Sudeste 0 918.4 0 94
2019-12-01 08:00:00 5.8 6 Sudeste 11 Sur 0 918.5 -0.4 94
2019-12-01 07:00:00 5.5 5 Sudoeste 14 Sudoeste 0 918.7 -0.8 94
2019-12-01 06:00:00 5.8 8 Sudoeste 25 Oeste 0.2 918.4 -1.4 92
2019-12-01 05:00:00 6.2 11 Oeste 23 Oeste 0 918.9 -1.2 91
2019-12-01 04:00:00 6.4 11 Oeste 18 Oeste 0 919.5 -0.9 92
2019-12-01 03:00:00 7.3 9 Oeste 15 Sudoeste 0 919.8 -1.2 92
2019-12-01 02:00:00 7.5 6 Oeste 12 Oeste 0.2 920.1 -1.2 92
2019-12-01 01:00:00 7.2 5 Sudeste 16 Nordeste 0.4 920.4 -0.5 93
2019-12-01 00:00:00 6.2 14 Norte 37 Noroeste 0.4 921 -0.3 93
2019-11-30 23:00:00 8.3 14 Noroeste 29 Noroeste 0.6 921.3 -0.3 90
2019-11-30 22:00:00 10.1 10 Sur 31 Sur 0 920.9 -1.2 84
2019-11-30 21:00:00 10.3 12 Sur 26 Sur 0 921.3 -1.1 83
2019-11-30 20:00:00 10.2 11 Sur 32 Sudoeste 0 921.6 -0.9 80
2019-11-30 19:00:00 11.3 19 Sudoeste 33 Sudoeste 0 922.1 -0.9 77
2019-11-30 18:00:00 11.8 13 Sudoeste 38 Sudoeste 0 922.4 -1 75
2019-11-30 17:00:00 12.7 22 Sudoeste 40 Sudoeste 0 922.5 -1.9 73
2019-11-30 16:00:00 13.4 17 Sudoeste 35 Sudoeste 0 923 -2.2 72
2019-11-30 15:00:00 13.6 19 Sudoeste 30 Sudoeste 0 923.4 -2.8 71
2019-11-30 14:00:00 14.1 19 Sudoeste 33 Sudoeste 0 924.4 -2.2 72
2019-11-30 13:00:00 13.2 12 Sudoeste 25 Sudoeste 0 925.2 -1.3 81
2019-11-30 12:00:00 11.9 12 Sudoeste 18 Sudoeste 0 926.2 -0.2 89
2019-11-30 11:00:00 11 9 Sudoeste 17 Sudoeste 0 926.6 0.3 93
2019-11-30 10:00:00 10.2 8 Sur 17 Sur 0 926.5 0 94
2019-11-30 09:00:00 9.9 7 Sur 15 Sur 0 926.4 0 94
2019-11-30 08:00:00 9.9 7 Sur 20 Sudeste 0 926.3 -0.6 94
2019-11-30 07:00:00 9.9 6 Sur 15 Sur 0 926.5 -0.3 94
2019-11-30 06:00:00 10 6 Sur 14 Sur 0 926.4 -0.6 94
2019-11-30 05:00:00 10 6 Sur 14 Sur 0 926.9 -0.4 94
2019-11-30 04:00:00 10.1 6 Sur 15 Sur 0 926.8 -0.8 94
2019-11-30 03:00:00 10.4 7 Sur 14 Sudoeste 0 927 -0.6 94
2019-11-30 02:00:00 10.4 9 Sudoeste 14 Sudoeste 0 927.3 -0.3 94
2019-11-30 01:00:00 10.4 9 Sudoeste 14 Sudoeste 0.2 927.6 0.1 94
2019-11-30 00:00:00 10.6 8 Sur 13 Sur 0 927.6 0 93
2019-11-29 23:00:00 10.8 7 Sur 15 Sur 0 927.6 0.3 93
2019-11-29 22:00:00 11 6 Sur 12 Sur 0 927.5 0.3 93
2019-11-29 21:00:00 11.2 6 Sudoeste 20 Sudoeste 0 927.6 0.7 93
2019-11-29 20:00:00 11.4 12 Sudoeste 19 Sudoeste 0 927.3 0.5 92
2019-11-29 19:00:00 11.7 7 Sudoeste 16 Sudoeste 0 927.2 0.6 91
2019-11-29 18:00:00 11.9 6 Sur 17 Sudoeste 0 926.9 0.3 90
2019-11-29 17:00:00 12.2 14 Oeste 22 Oeste 0 926.8 0.2 89
2019-11-29 16:00:00 12.3 12 Oeste 28 Oeste 0 926.6 -0.3 89
2019-11-29 15:00:00 12.3 12 Oeste 23 Oeste 0 926.6 -0.7 90
2019-11-29 14:00:00 11.9 14 Sudoeste 27 Oeste 0 926.6 -0.7 92
2019-11-29 13:00:00 11.6 16 Sudoeste 27 Oeste 0 926.9 0.5 93
2019-11-29 12:00:00 11.6 15 Sudoeste 28 Oeste 0 927.3 1.4 95
2019-11-29 11:00:00 10.3 13 Sudoeste 23 Sudoeste 0 927.3 1.8 95
2019-11-29 10:00:00 9.6 11 Sudoeste 19 Sur 0 926.4 1.5 95
2019-11-29 09:00:00 9.2 8 Sur 25 Sudoeste 0 925.9 1.1 94
2019-11-29 08:00:00 8.9 9 Sur 23 Sudoeste 0 925.5 0.9 94
2019-11-29 07:00:00 8.7 11 Sur 20 Sudoeste 0 924.9 0.6 94
2019-11-29 06:00:00 8.6 10 Sudoeste 22 Sudoeste 0 924.8 0.6 94
2019-11-29 05:00:00 8.3 10 Sur 19 Sudoeste 0 924.6 0.5 93
2019-11-29 04:00:00 8.2 10 Sudeste 21 Sudeste 0 924.3 0.1 93
2019-11-29 03:00:00 8 11 Sur 23 Sudeste 0 924.2 0.2 93
2019-11-29 02:00:00 8.1 9 Sur 20 Sudeste 0 924.1 0 93
2019-11-29 01:00:00 8.2 9 Sur 22 Sudeste 0 924.2 0.2 93
2019-11-29 00:00:00 8.2 11 Sudeste 21 Sudeste 0 924 0.3 92
2019-11-28 23:00:00 8.3 8 Sur 19 Sur 0 924.1 0.7 92
2019-11-28 22:00:00 9 13 Sudoeste 21 Sudoeste 0 924 1 91
2019-11-28 21:00:00 9 10 Sudoeste 24 Sudoeste 0 923.7 0.9 91
2019-11-28 20:00:00 9.1 12 Sudoeste 29 Sur 0 923.4 0.7 92
2019-11-28 19:00:00 9.3 12 Sudoeste 28 Sur 0 923 0.5 91
2019-11-28 18:00:00 9.5 13 Sur 28 Sur 0 922.8 -0.4 90
2019-11-28 17:00:00 10 14 Sudoeste 34 Sudoeste 0 922.7 -0.8 85
2019-11-28 16:00:00 10.2 12 Sur 28 Sur 0 922.5 -1.7 84
2019-11-28 15:00:00 9.7 13 Sudoeste 29 Sudoeste 0 923.2 -1.4 88
2019-11-28 14:00:00 10.3 15 Sudoeste 31 Sudoeste 0 923.5 -- 82
2019-11-28 13:00:00 9.7 9 Sur 19 Sur 0 924.2 0.3 86
2019-11-28 12:00:00 8.6 9 Sudoeste -- -- -- 924.6 1.1 88
2019-11-28 11:00:00 -- -- -- -- -- -- -- -- --
2019-11-28 10:00:00 -- 9 Sudoeste 17 Sudoeste 0 923.9 1.4 --
2019-11-28 09:00:00 -- 7 Oeste 17 Sudoeste 0 923.5 1.4 --
2019-11-28 08:00:00 -- 10 Sudoeste 32 Sudoeste 0 922.9 1.1 --
2019-11-28 07:00:00 -- 11 Sudoeste 27 Oeste 0 922.5 0.7 --
2019-11-28 06:00:00 -- 5 Sur 19 Sudoeste 0 922.1 0.8 --
2019-11-28 05:00:00 -- 15 Oeste 28 Oeste 0 921.8 0.7 --
2019-11-28 04:00:00 -- 14 Sudoeste 45 Oeste 0 921.8 0.4 --
2019-11-28 03:00:00 -- 22 Oeste 42 Oeste 0 921.3 -0.1 --
2019-11-28 02:00:00 -- 14 Sudoeste 22 Oeste 0 921.1 0 --
2019-11-28 01:00:00 -- 11 Sudoeste 21 Sudoeste 0 921.4 0.7 --
2019-11-28 00:00:00 -- 13 Sudoeste 19 Sudoeste 0 921.4 0.9 --
2019-11-27 23:00:00 -- 8 Sur 21 Sudoeste 0 921.1 1 --
2019-11-27 22:00:00 -- 15 Sudoeste 28 Oeste 0 920.7 0.9 --
2019-11-27 21:00:00 -- 18 Oeste 38 Oeste 0 920.5 1 --
2019-11-27 20:00:00 -- 13 Oeste 26 Oeste 0 920.1 1.1 --
2019-11-27 19:00:00 -- 16 Oeste 29 Oeste 0 919.8 0.6 --
2019-11-27 18:00:00 -- 18 Oeste 36 Oeste 0 919.5 0.4 --
2019-11-27 17:00:00 -- 21 Oeste 36 Oeste 0 919 -0.8 --
2019-11-27 16:00:00 -- 19 Oeste 38 Oeste 0 919.2 -0.6 --
2019-11-27 15:00:00 -- 20 Oeste 37 Oeste 0 919.1 -1 --
2019-11-27 14:00:00 -- 20 Oeste 55 Oeste 0 919.8 -0.1 --
2019-11-27 06:00:00 -- 18 Oeste 33 Sudoeste 0 917.5 0.6 --
2019-11-27 05:00:00 -- 17 Sudoeste 34 Sudoeste 0 917.1 0.3 --
2019-11-27 04:00:00 -- 18 Sudoeste 39 Sudoeste 0 916.8 -0.3 --
2019-11-27 03:00:00 -- 17 Sudoeste 33 Sudoeste 0 916.9 -0.4 --
2019-11-27 02:00:00 -- 17 Sudoeste 34 Sudoeste 0 916.8 -0.5 --
2019-11-27 01:00:00 -- 18 Sudoeste 36 Sur 0 917.1 -0.3 --
2019-11-27 00:00:00 -- 18 Sudoeste 34 Sur 0 917.3 -0.1 --
2019-11-26 23:00:00 -- 15 Sudoeste 32 Sudoeste 0 917.3 -0.2 --
2019-11-26 22:00:00 -- 20 Sudoeste 37 Sudoeste 0 917.4 -0.1 --
2019-11-26 21:00:00 -- 17 Sur 41 Sudoeste 0 917.4 -0.4 --
2019-11-26 20:00:00 -- 12 Sur 32 Sudoeste 0 917.5 -0.6 --
2019-11-26 19:00:00 -- 12 Sur 35 Sur 0 917.5 -1.2 --
2019-11-26 18:00:00 -- 14 Sur 37 Sur 0 917.8 -1.3 --
2019-11-26 17:00:00 -- 12 Sur 33 Sur 0 918.1 -1.9 --
2019-11-26 16:00:00 -- 16 Sudoeste 35 Sur 0 918.7 -1.9 --
2019-11-26 15:00:00 -- 10 Sur 26 Sudoeste 0 919.1 -2.6 --
2019-11-26 14:00:00 -- 12 Sudoeste 27 Sur 0 920 -1.7 --
2019-11-26 13:00:00 -- 11 Sur 23 Sur 0 920.6 -1.2 --
2019-11-26 12:00:00 -- 9 Sur 23 Sudoeste 0 921.7 0 --
2019-11-26 11:00:00 -- 9 Sur 22 Sur 0 921.7 0.3 --
2019-11-26 10:00:00 -- 8 Sur 17 Sudeste 0 921.8 0.8 --
2019-11-26 09:00:00 -- 7 Sudoeste 18 Sudoeste 0 921.7 0.2 --
2019-11-26 08:00:00 -- 11 Sudoeste 18 Sudoeste 0 921.4 -0.5 --
2019-11-26 07:00:00 -- 7 Sudoeste 14 Sudoeste 0 921 -1 --
2019-11-26 06:00:00 -- 8 Sudoeste 14 Sudoeste 0 921.5 -0.6 --
2019-11-26 05:00:00 -- 6 Sudoeste 15 Sur 0 921.9 -0.5 --
2019-11-26 04:00:00 -- 8 Sudoeste 19 Oeste 0 922 -0.5 --
2019-11-26 03:00:00 -- 12 Oeste 20 Sudoeste 0 922.1 -0.4 --
2019-11-26 02:00:00 -- 11 Sudoeste 22 Sudoeste 0 922.4 -0.2 --
2019-11-26 01:00:00 -- 13 Sudoeste 28 Sudoeste 0 922.5 -0.1 --
2019-11-26 00:00:00 -- 18 Oeste 29 Sudoeste 0 922.5 0.2 --
2019-11-25 23:00:00 -- 19 Oeste 33 Oeste 0 922.6 0.5 --
2019-11-25 22:00:00 -- 17 Oeste 34 Oeste 0 922.6 0.8 --
2019-11-25 21:00:00 -- 15 Oeste 29 Oeste 0 922.3 0.9 --
2019-11-25 20:00:00 -- 14 Oeste 29 Oeste 0 922.1 0.9 --
2019-11-25 19:00:00 -- 18 Oeste 26 Oeste 0 921.8 0.8 --
2019-11-25 18:00:00 -- 14 Oeste 27 Oeste 0 921.4 0.4 --
2019-11-25 17:00:00 -- 10 Oeste 28 Oeste 0 921.2 0.4 --
2019-11-25 16:00:00 -- 14 Oeste 33 Oeste 0 921 0 --
2019-11-25 15:00:00 -- 14 Oeste 28 Oeste 0 921 -0.7 --
2019-11-25 14:00:00 -- 11 Oeste 24 Oeste 0 920.8 -0.8 --
2019-11-25 13:00:00 -- 12 Sudoeste 20 Sudoeste 0 921 -0.3 --
2019-11-25 12:00:00 -- 13 Sudoeste 24 Sudoeste 0 921.7 0.6 --
2019-11-25 11:00:00 -- 15 Sudoeste 23 Sudoeste 0 921.6 0.8 --
2019-11-25 10:00:00 -- 14 Sudoeste 23 Sudoeste 0 921.3 0.8 --
2019-11-25 09:00:00 -- 8 Sudoeste 21 Sudoeste 0 921.1 1 --
2019-11-25 08:00:00 -- 14 Sudoeste 28 Sudoeste 0 920.8 0.5 --
2019-11-25 07:00:00 -- 18 Sudoeste 32 Sudoeste 0 920.5 0.1 --
2019-11-25 06:00:00 -- 17 Sudoeste 31 Sudoeste 0 920.1 -0.7 --
2019-11-25 05:00:00 -- 18 Sudoeste 30 Sudoeste 0 920.3 -0.7 --
2019-11-25 04:00:00 -- 16 Sudoeste 26 Sudoeste 0 920.4 -1.1 --
2019-11-25 03:00:00 -- 13 Sudoeste 26 Sudoeste 0 920.8 -1 --
2019-11-25 02:00:00 -- 9 Sur 21 Sur 0 921 -0.3 --
2019-11-25 01:00:00 -- 8 Sudeste 19 Sudeste 0 921.5 -0.1 --
2019-11-25 00:00:00 -- 8 Sudeste 19 Sur 0 921.8 0.4 --
2019-11-24 23:00:00 -- 9 Sudoeste 25 Sudoeste 0 921.3 0.2 --
2019-11-24 22:00:00 -- 17 Sudoeste 26 Sudoeste 0 921.6 0.5 --
2019-11-24 21:00:00 -- 15 Oeste 26 Oeste 0 921.4 0.6 --
2019-11-24 20:00:00 -- 11 Oeste 22 Oeste 0 921.1 0.8 --
2019-11-24 19:00:00 -- 10 Sudoeste 19 Sudoeste 0 921.1 0.9 --
2019-11-24 18:00:00 -- 12 Sudoeste 30 Oeste 0 920.8 0.6 --
2019-11-24 17:00:00 -- 17 Oeste 29 Sudoeste 0 920.3 -0.7 --
2019-11-24 16:00:00 -- 17 Oeste 30 Oeste 0 920.2 -1.1 --
2019-11-24 15:00:00 -- 9 Oeste 26 Oeste 0 920.2 -1.7 --
2019-11-24 14:00:00 -- 10 Oeste 24 Oeste 0 921 -0.3 --
2019-11-24 13:00:00 -- 11 Noroeste 29 Oeste 0 921.3 0.3 --
2019-11-24 12:00:00 -- 9 Oeste 22 Oeste 0 921.9 1.4 --
2019-11-24 11:00:00 -- 8 Oeste 28 Noroeste 0 921.3 1.6 --
2019-11-24 10:00:00 -- 10 Oeste 28 Noroeste 0 921 2.1 --
2019-11-24 09:00:00 -- 10 Oeste 22 Oeste 0 920.5 2.2 --
2019-11-24 08:00:00 -- 11 Oeste 27 Oeste 0 919.7 1.6 --
2019-11-24 07:00:00 -- 13 Oeste 28 Oeste 0 918.9 0.9 --
2019-11-24 06:00:00 -- 10 Oeste 33 Oeste 0 918.3 0.8 --
2019-11-24 05:00:00 -- 16 Oeste 39 Oeste 0 918.1 0.9 --
2019-11-24 04:00:00 -- 11 Oeste 31 Oeste 0 918 0.7 --
2019-11-24 03:00:00 -- 17 Oeste 33 Oeste 0 917.5 0.3 --
2019-11-24 02:00:00 -- 18 Oeste 34 Oeste 0 917.2 0.6 --
2019-11-24 01:00:00 -- 15 Oeste 39 Oeste 0 917.3 1.4 --
2019-11-24 00:00:00 -- 17 Oeste 35 Oeste 0 917.2 1.5 --
2019-11-23 23:00:00 -- 18 Oeste 39 Oeste 0 916.6 1.7 --
2019-11-23 22:00:00 -- 14 Oeste 31 Oeste 0 915.9 1.6 --
2019-11-23 21:00:00 -- 15 Oeste 40 Oeste 0 915.7 2.2 --
2019-11-23 20:00:00 -- 15 Oeste 35 Oeste 0 914.9 2.6 --
2019-11-23 19:00:00 -- 16 Oeste 38 Oeste 0 914.3 2.7 --
2019-11-23 18:00:00 -- 12 Oeste 36 Noroeste 0 913.5 2.7 --
2019-11-23 17:00:00 -- 17 Noroeste 42 Noroeste 0 912.3 1.7 --
2019-11-23 16:00:00 -- 14 Oeste 44 Noroeste 0 911.6 1.5 --
2019-11-23 15:00:00 -- 21 Noroeste 49 Noroeste 0 910.8 0.7 --
2019-11-23 14:00:00 -- 22 Noroeste 54 Noroeste 0 910.6 1.6 --
2019-11-23 13:00:00 -- 19 Oeste 37 Noroeste 0 910.1 2.5 --
2019-11-23 12:00:00 -- 15 Oeste 35 Oeste 0 910.1 4.2 --
2019-11-23 11:00:00 -- 12 Oeste 37 Oeste 0 909 4.8 --
2019-11-23 10:00:00 -- 18 Oeste 48 Oeste 0 907.6 4.4 --
2019-11-23 09:00:00 -- 24 Oeste 50 Sudoeste 0 905.9 3 --
2019-11-23 08:00:00 -- 24 Oeste 53 Oeste 0 904.2 1.6 --
2019-11-23 07:00:00 -- 25 Oeste 52 Oeste 0 903.2 1.3 --
2019-11-23 06:00:00 -- 25 Oeste 51 Oeste 0 902.9 0.6 --
2019-11-23 05:00:00 -- 24 Oeste 47 Sudoeste 0 902.6 1.1 --
2019-11-23 04:00:00 -- 19 Oeste 46 Noroeste 0 901.9 0 --
2019-11-23 03:00:00 -- 24 Oeste 48 Sudoeste 0 902.3 0.1 --
2019-11-23 02:00:00 -- 21 Sudoeste 37 Sudoeste 0 901.5 -0.5 --
2019-11-23 01:00:00 -- 21 Sudoeste 38 Sudoeste 0 901.9 -0.2 --
2019-11-23 00:00:00 -- 20 Sudoeste 36 Sudoeste 0 902.2 0.5 --
2019-11-22 23:00:00 -- 17 Sudoeste 35 Sudoeste 0 902 0.9 --
2019-11-22 22:00:00 -- 22 Sudoeste 38 Sudoeste 0 902.1 1.3 --
2019-11-22 21:00:00 -- 21 Sudoeste 45 Sudoeste 0 901.7 1.4 --
2019-11-22 20:00:00 -- 23 Sudoeste 43 Sudoeste 0 901.1 0.5 --
2019-11-22 19:00:00 -- 23 Sudoeste 39 Sudoeste 0 900.8 -0.3 --
2019-11-22 18:00:00 -- 14 Sur 45 Sur 0 900.3 -1.7 --
2019-11-22 17:00:00 -- 17 Sur 46 Sur 0 900.6 -3.1 --
2019-11-22 16:00:00 -- 21 Sur 56 Sur 0 901.1 -3.8 --
2019-11-22 15:00:00 -- 18 Sur 47 Sur 0 902 -5 --
2019-11-22 14:00:00 -- 15 Sur 43 Sur 0 903.7 -4.2 --
2019-11-22 13:00:00 -- 21 Sudeste 41 Sur 0 904.9 -4.1 --
2019-11-22 12:00:00 -- 15 Sur 43 Sur 0 907 -2.4 --
2019-11-22 11:00:00 -- 18 Sur 35 Sur 0 907.9 -2 --
2019-11-22 10:00:00 -- 16 Sur 37 Sur 0 909 -1.5 --
2019-11-22 09:00:00 -- 11 Sur 35 Sur 0 909.4 -1.6 --
2019-11-22 08:00:00 -- 12 Sur 27 Sur 0 909.9 -1.6 --
2019-11-22 07:00:00 -- 10 Sur 24 Sur 0 910.5 -1.5 --
2019-11-22 06:00:00 -- 10 Sur 23 Sur 0 911 -1.3 --
2019-11-22 05:00:00 -- 10 Sur 27 Sur 0 911.5 -1.3 --
2019-11-22 04:00:00 -- 12 Sur 24 Sur 0 912 -1.4 --
2019-11-22 03:00:00 -- 13 Sudeste 22 Sur 0 912.3 -1.7 --
2019-11-22 02:00:00 -- 9 Sudeste 15 Sur 0 912.8 -1.8 --
2019-11-22 01:00:00 -- 10 Sudeste 16 Sudeste 0 913.4 -1 --
2019-11-22 00:00:00 -- 6 Sudeste 11 Sur 0 914 0 --
2019-11-21 23:00:00 -- 6 Sur 14 Sudeste 0 914.6 0.5 --
2019-11-21 22:00:00 -- 7 Sudeste 14 Sudeste 0 914.4 0.5 --
2019-11-21 21:00:00 -- 6 Sudeste 13 Sudeste 0 914 0.4 --
2019-11-21 20:00:00 -- 7 Sudeste 14 Sudeste 0 914.1 0.3 --
2019-11-21 19:00:00 -- 4 Sur 10 Sur 0 913.9 0.3 --
2019-11-21 18:00:00 -- 3 Sur 11 Sur 0 913.6 -0.3 --
2019-11-21 17:00:00 -- 4 Sudoeste 9 Sudoeste 0 913.8 -0.3 --
2019-11-21 16:00:00 -- 6 Sudoeste 18 Sudoeste 0 913.6 -1.1 --
2019-11-21 15:00:00 -- 12 Sudoeste 22 Sudoeste 0 913.9 -1.3 --
2019-11-21 14:00:00 -- 7 Sudoeste 19 Sudoeste 0 914.1 -1 --
2019-11-21 13:00:00 -- 12 Sudoeste 26 Sudoeste 0 914.7 -0.3 --
2019-11-21 12:00:00 -- 10 Sur 23 Sudoeste 0 915.2 0.6 --
2019-11-21 11:00:00 -- 13 Sudoeste 26 Sur 0 915.1 0.7 --
2019-11-21 10:00:00 -- 8 Sur 19 Sur 0 915 1 --
2019-11-21 09:00:00 -- 8 Sur 18 Sur 0 914.6 0.6 --
2019-11-21 08:00:00 -- 9 Sur 20 Sur 0 914.4 0 --
2019-11-21 07:00:00 -- 7 Sur 15 Sur 0 914 -0.6 --
2019-11-21 06:00:00 -- 7 Sur 16 Sudoeste 0 914 -0.6 --
2019-11-21 05:00:00 -- 7 Sur 15 Sur 0 914.4 -0.2 --
2019-11-21 04:00:00 -- 6 Sur 14 Sur 0 914.6 0 --
2019-11-21 03:00:00 -- 6 Sur 17 Sur 0 914.6 -0.2 --
2019-11-21 02:00:00 -- 8 Sur 17 Sur 0 914.6 -0.3 --
2019-11-21 01:00:00 -- 9 Sur 18 Sudoeste 0 914.6 -0.3 --
2019-11-21 00:00:00 -- 8 Sur 19 Sudoeste 0 914.8 0.1 --
2019-11-20 23:00:00 -- 9 Sudoeste 25 Sudoeste 0 914.9 0.2 --
2019-11-20 22:00:00 -- 10 Sudoeste 21 Sur 0 914.9 0.2 --
2019-11-20 21:00:00 -- 10 Sur 22 Sur 0 914.7 -0.1 --
2019-11-20 20:00:00 -- 9 Sudeste 19 Sudeste 0 914.7 -0.2 --
2019-11-20 19:00:00 -- 6 Sur 18 Sudoeste 0 914.7 0.1 --
2019-11-20 18:00:00 -- 7 Sur 22 Sudoeste 0 914.8 -0.2 --
2019-11-20 17:00:00 -- 12 Sudoeste 37 Sudoeste 0 914.9 -0.6 --
2019-11-20 16:00:00 -- 10 Sur 23 Sudoeste 0 914.6 -1.6 --
2019-11-20 15:00:00 -- 13 Sudoeste 27 Sudoeste 0 915 -2.1 --
2019-11-20 14:00:00 -- 13 Sudoeste 28 Sudoeste 0 915.5 -1.8 --
2019-11-20 13:00:00 -- 10 Sur 20 Sur 0 916.2 -1.4 --
2019-11-20 12:00:00 -- 10 Sur 22 Sur 0 917.1 -0.3 --
2019-11-20 11:00:00 -- 10 Sur 22 Sudeste 0 917.3 0 --
2019-11-20 10:00:00 -- 7 Sur 19 Sudeste 0 917.6 0.1 --
2019-11-20 09:00:00 -- 10 Sudeste 18 Sudeste 0 917.4 -0.4 --
2019-11-20 08:00:00 -- 11 Sudeste 18 Sudeste 0 917.3 -0.7 --
2019-11-20 07:00:00 -- 10 Sudeste 15 Sudeste 0 917.5 -1.1 --
2019-11-20 06:00:00 -- 8 Sudeste 13 Sudeste 0 917.8 -1.1 --
2019-11-20 05:00:00 -- 9 Sudeste 14 Sudeste 0 918 -1.2 --
2019-11-20 04:00:00 -- 9 Sudeste 14 Sudeste 0 918.6 -1 --
2019-11-20 03:00:00 -- 7 Sudeste 13 Sudeste 0 918.9 -1.1 --
2019-11-20 02:00:00 -- 9 Sudeste 14 Sudeste 0 919.2 -1.3 --
2019-11-20 01:00:00 -- 6 Sur 12 Sudeste 0 919.6 -1.1 --
2019-11-20 00:00:00 -- 8 Sudeste 12 Sudeste 0 920 -0.8 --
2019-11-19 23:00:00 -- 7 Sudeste 13 Sur 0 920.5 -0.2 --
2019-11-19 22:00:00 -- 7 Sudeste 15 Sudeste 0 920.7 0.1 --
2019-11-19 21:00:00 -- 6 Sudeste 13 Sudeste 0 920.8 0.3 --
2019-11-19 20:00:00 -- 3 Sudeste 6 Sudeste 0 920.7 0 --
2019-11-19 19:00:00 -- 0 Calma 4 Noroeste 0 920.6 -0.1 --
2019-11-19 18:00:00 -- 2 Norte 6 Sudoeste 0 920.5 -0.6 --
2019-11-19 17:00:00 -- 4 Oeste 16 Noroeste 0 920.7 -0.9 --
2019-11-19 16:00:00 -- 8 Oeste 22 Sudoeste 0 920.7 -1.7 --
2019-11-19 15:00:00 -- 7 Oeste 18 Noroeste 0 921.1 -2.1 --
2019-11-19 14:00:00 -- 7 Oeste 21 Sudoeste 0 921.6 -1.8 --
2019-11-19 13:00:00 -- 9 Sudoeste 17 Oeste 0 922.4 -1.1 --
2019-11-19 12:00:00 -- 5 Sudoeste 13 Sudoeste 0 923.2 -- --
2019-11-19 11:00:00 -- 6 Sudoeste 10 Sudoeste 0 923.4 0.7 --
2019-11-19 10:00:00 -- 2 Sur -- -- -- 923.5 1.1 --
2019-11-19 09:00:00 -- -- -- -- -- -- -- -- --
2019-11-19 08:00:00 -- 0 Calma 4 Noroeste 0 922.7 0.2 --
2019-11-19 07:00:00 -- 0 Calma 5 Este 0 922.4 -0.1 --
2019-11-19 06:00:00 -- 2 Sudeste 5 Sudeste 0 922.5 -0.2 --
2019-11-19 05:00:00 -- 0 Calma 5 Noroeste 0 922.5 0 --
2019-11-19 04:00:00 -- 3 Sudoeste 8 Sudoeste 0 922.5 -0.6 --
2019-11-19 03:00:00 -- 4 Oeste 9 Norte 0 922.7 -0.4 --
2019-11-19 02:00:00 -- 3 Noroeste 13 Nordeste 0 922.5 -0.6 --
2019-11-19 01:00:00 -- 3 Nordeste 18 Norte 0 923.1 0.4 --
2019-11-19 00:00:00 -- 5 Norte 18 Noroeste 0 923.1 1 --
2019-11-18 23:00:00 -- 5 Oeste 11 Oeste 0 923.1 1.3 --
2019-11-18 22:00:00 -- 4 Oeste 15 Noroeste 0 922.7 1.4 --
2019-11-18 21:00:00 -- 9 Norte 22 Norte 0 922.1 1.1 --
2019-11-18 20:00:00 -- 11 Norte 23 Norte 0 921.8 1.4 --
2019-11-18 19:00:00 -- 12 Norte 28 Norte 0 921.3 1.4 --
2019-11-18 18:00:00 -- 12 Noroeste 32 Norte 0 921 1.5 --
2019-11-18 17:00:00 -- 17 Norte 40 Norte 0 920.4 1 --
2019-11-18 16:00:00 -- 12 Noroeste 40 Noroeste 0 919.9 0.1 --
2019-11-18 15:00:00 -- 18 Noroeste 37 Noroeste 0 919.5 -0.3 --
2019-11-18 14:00:00 -- 16 Noroeste 32 Norte 0 919.4 -0.2 --
2019-11-18 13:00:00 -- 12 Norte 29 Noroeste 0 919.8 0.8 --
2019-11-18 12:00:00 -- 14 Noroeste 30 Norte 0 919.8 1.7 --
2019-11-18 11:00:00 -- 8 Noroeste 20 Norte 0 919.6 2.1 --
2019-11-18 10:00:00 -- 5 Noroeste 13 Norte 0 919 2.1 --
2019-11-18 09:00:00 -- 4 Norte 8 Norte 0 918.1 1.5 --
2019-11-18 08:00:00 -- 5 Noroeste 13 Norte 0 917.5 1.2 --
2019-11-18 07:00:00 -- 7 Norte 17 Norte 0 916.9 1 --
2019-11-18 06:00:00 -- 8 Norte 15 Norte 0 916.6 0.8 --
2019-11-18 05:00:00 -- 5 Noroeste 13 Norte 0 916.3 0.6 --
2019-11-18 04:00:00 -- 4 Norte 15 Noroeste 0 915.9 0.2 --
2019-11-18 03:00:00 -- 4 Noroeste 13 Norte 0 915.8 0.2 --
2019-11-18 02:00:00 -- 5 Noroeste 15 Noroeste 0 915.7 0.4 --
2019-11-18 01:00:00 -- 6 Noroeste 12 Noroeste 0 915.7 0.2 --
2019-11-18 00:00:00 -- 4 Noroeste 18 Oeste 0 915.6 -1 --
2019-11-17 23:00:00 -- 3 Sudeste 22 Sudoeste 0 915.3 -1 --
2019-11-17 22:00:00 -- 12 Oeste 28 Oeste 0 915.5 -1 --
2019-11-17 21:00:00 -- 10 Noroeste 22 Oeste 0 916.6 -0.2 --
2019-11-17 20:00:00 -- 8 Sudoeste 24 Sudoeste 0 916.3 -1 --
2019-11-17 19:00:00 -- 12 Sudoeste 23 Sudoeste 0 916.5 -1 --
2019-11-17 18:00:00 -- 15 Sudoeste 32 Sudoeste 0 916.8 -1.3 --
2019-11-17 17:00:00 -- 17 Sudoeste 35 Sudoeste 0 917.3 -1.4 --
2019-11-17 16:00:00 -- 18 Sudoeste 34 Sudoeste 0 917.5 -2.2 --
2019-11-17 15:00:00 -- 17 Sudoeste 31 Sudoeste 0 918.1 -2.3 --
2019-11-17 14:00:00 -- 14 Sudoeste 29 Sudoeste 0 918.7 -2 --
2019-11-17 13:00:00 -- 15 Sudoeste 33 Sudoeste 0 919.7 -1.2 --
2019-11-17 12:00:00 -- 19 Sudoeste 33 Sudoeste 0 920.4 -0.1 --
2019-11-17 11:00:00 -- 13 Sudoeste 22 Sudoeste 0 920.7 0.3 --
2019-11-17 10:00:00 -- 8 Sur 18 Sudoeste 0 920.9 0.5 --
2019-11-17 09:00:00 -- 13 Sudoeste 21 Sudoeste 0 920.5 0.1 --
2019-11-17 08:00:00 -- 10 Oeste 19 Oeste 0 920.4 0 --
2019-11-17 07:00:00 -- 9 Sudoeste 18 Sudoeste 0 920.4 -0.5 --
2019-11-17 06:00:00 -- 10 Sudoeste 19 Sudoeste 0 920.4 -0.2 --
2019-11-17 05:00:00 -- 9 Sudoeste 16 Sudoeste 0 920.4 -0.4 --
2019-11-17 04:00:00 -- 6 Sur 13 Oeste 0 920.9 -0.4 --
2019-11-17 03:00:00 -- 8 Oeste 18 Oeste 0 920.6 -0.6 --
2019-11-17 02:00:00 -- 4 Noroeste 14 Noroeste 0 920.8 -0.5 --
2019-11-17 01:00:00 -- 7 Oeste 22 Oeste 0 921.3 0.3 --
2019-11-17 00:00:00 -- 11 Oeste 23 Oeste 0 921.2 0 --
2019-11-16 23:00:00 -- 9 Oeste 18 Oeste 0 921.3 0.4 --
2019-11-16 22:00:00 -- 5 Sudoeste 12 Noroeste 0 921 0.4 --
2019-11-16 21:00:00 -- 6 Noroeste 16 Oeste 0 921.2 1 --
2019-11-16 20:00:00 -- 7 Oeste 21 Oeste 0 920.9 0.9 --
2019-11-16 19:00:00 -- 10 Oeste 30 Oeste 0 920.6 0.9 --
2019-11-16 18:00:00 -- 14 Oeste 23 Oeste 0 920.2 0.7 --
2019-11-16 17:00:00 -- 9 Oeste 28 Oeste 0 920 0.4 --
2019-11-16 16:00:00 -- 12 Oeste 30 Oeste 0 919.7 -0.1 --
2019-11-16 15:00:00 -- 11 Oeste 26 Oeste 0 919.5 -0.5 --
2019-11-16 14:00:00 -- 9 Oeste 23 Noroeste 0 919.6 0 --
2019-11-16 13:00:00 -- 7 Noroeste 22 Noroeste 0 919.8 0.9 --
2019-11-16 12:00:00 -- 8 Noroeste 22 Noroeste 0 920 1.5 --
2019-11-16 11:00:00 -- 8 Noroeste 21 Noroeste 0 919.6 2 --
2019-11-16 10:00:00 -- 3 Oeste 11 Noroeste 0 918.9 2.1 --
2019-11-16 09:00:00 -- 4 Noroeste 10 Noroeste 0 918.5 2.6 --
2019-11-16 08:00:00 -- 6 Noroeste 16 Noroeste 0 917.6 2.3 --
2019-11-16 07:00:00 -- 2 Noroeste 9 Noroeste 0 916.8 2.2 --
2019-11-16 06:00:00 -- 3 Noroeste 15 Noroeste 0 915.9 1.6 --
2019-11-16 05:00:00 -- 4 Oeste 11 Noroeste 0 915.3 1.3 --
2019-11-16 04:00:00 -- 5 Noroeste 17 Noroeste 0 914.6 0.8 --
2019-11-16 03:00:00 -- 7 Noroeste 15 Noroeste 0 914.3 0.9 --
2019-11-16 02:00:00 -- 5 Oeste 18 Noroeste 0 914 1.1 --
2019-11-16 01:00:00 -- 9 Noroeste 20 Noroeste 0 913.8 1.1 --
2019-11-16 00:00:00 -- 8 Noroeste 21 Oeste 0 913.4 1.3 --
2019-11-15 23:00:00 -- 10 Oeste 24 Oeste 0 912.9 1 --
2019-11-15 22:00:00 -- 10 Oeste 27 Oeste 0 912.7 1.2 --
2019-11-15 21:00:00 -- 11 Oeste 22 Oeste 0 912.1 1.1 --
2019-11-15 20:00:00 -- 8 Oeste 21 Oeste 0 911.9 1.2 --
2019-11-15 19:00:00 -- 9 Oeste 25 Oeste 0 911.5 1.1 --
2019-11-15 18:00:00 -- 6 Oeste 24 Noroeste 0 911 0.8 --
2019-11-15 17:00:00 -- 12 Noroeste 32 Noroeste 0 910.7 0.5 --
2019-11-15 16:00:00 -- 12 Oeste 31 Oeste 0 910.4 -0.1 --
2019-11-15 15:00:00 -- 12 Oeste 29 Oeste 0 910.2 -0.8 --
2019-11-15 14:00:00 -- 13 Noroeste 32 Oeste 0 910.2 -0.8 --
2019-11-15 13:00:00 -- 13 Noroeste 33 Noroeste 0 910.5 -0.4 --
2019-11-15 12:00:00 -- 13 Oeste 33 Noroeste 0 911 0.6 --
2019-11-15 11:00:00 -- 12 Oeste 31 Oeste 0 911 1.2 --
2019-11-15 10:00:00 -- 12 Oeste 24 Oeste 0 910.9 1.2 --
2019-11-15 09:00:00 -- 13 Oeste 30 Oeste 0 910.4 1 --
2019-11-15 08:00:00 -- 9 Oeste 19 Oeste 0 909.8 0.7 --
2019-11-15 07:00:00 -- 12 Sudoeste 23 Oeste 0 909.7 0.6 --
2019-11-15 06:00:00 -- 12 Oeste 26 Oeste 0 909.4 0.6 --
2019-11-15 05:00:00 -- 12 Oeste 34 Oeste 0 909.1 0.5 --
2019-11-15 04:00:00 -- 14 Oeste 31 Oeste 0 909.1 0.4 --
2019-11-15 03:00:00 -- 12 Oeste 29 Oeste 0 908.8 0.4 --
2019-11-15 02:00:00 -- 14 Oeste 31 Oeste 0 908.6 0.4 --
2019-11-15 01:00:00 -- 15 Oeste 36 Noroeste 0 908.7 1.2 --
2019-11-15 00:00:00 -- 12 Oeste 34 Oeste 0 908.4 1.4 --